Nearby METAR Reports

 

KL35 - Big Bear City, California, USA
Distance from station: WNW 2mi, 4km
Updated: 06/22/2018 1:55am
Clear
Clear
 Wind from calm
Wind: Calm
Temperature: 48°F , 9°C
Dew Point: 25°F , -4°C
Humidity: 40%
Barometer: 30.25 inHg , 1024.4 hPa
Clouds: Clear
Visibility: 10 miles , 16 km
2018/06/22 08:55 KL35 220855Z AUTO 00000KT 10SM CLR 09/M04 A3025 RMK AO2
KSBD - San Bernardino, California, USA
Distance from station: WSW 28mi, 45km
Updated: 06/22/2018 2:00am
Clear
Clear
 Wind from W
Wind: W 5 mph , 7 km/h
Temperature: 64°F , 18°C
Dew Point: 57°F , 14°C
Humidity: 78%
Barometer: 29.93 inHg , 1013.5 hPa
Clouds: Clear
Visibility: 7 miles , 11 km
2018/06/22 09:00 KSBD 220900Z AUTO 26004KT 7SM CLR 18/14 A2993 RMK AO2 T01800144
 
KVCV - Victorville, California, USA
Distance from station: NW 40mi, 64km
Updated: 06/21/2018 7:55pm
NOT Current
Clear
Clear
 Wind from WSW
Wind: WSW 12 mph , 19 km/h
Barometer: 29.94 inHg , 1013.9 hPa
Clouds: Clear
Visibility: 10 miles , 16 km
2018/06/22 02:55 KVCV 220255Z 24010KT 10SM SKC A2994
KNXP - Twentynine Palms, California, USA
Distance from station: E 37mi, 59km
Updated: 06/22/2018 1:56am
Clear
Clear
 Wind from WNW
Wind: WNW 14 mph , 22 km/h, Gust: 22 mph , 35 km/h
Temperature: 88°F , 31°C
Dew Point: 28°F , -2°C
Humidity: 12%
Barometer: 29.92 inHg , 1013.2 hPa
Clouds: Clear
Visibility: 10 miles , 16 km
2018/06/22 08:56 KNXP 220856Z AUTO 30012G19KT 10SM CLR 31/M02 A2992 RMK AO2 SLP086 T03111022 55002
 
KPSP - Palm Springs, California, USA
Distance from station: SSE 35mi, 57km
Updated: 06/22/2018 1:53am
Clear
Clear
 Wind from calm
Wind: Calm
Temperature: 88°F , 31°C
Dew Point: 52°F , 11°C
Humidity: 29%
Barometer: 29.74 inHg , 1007.1 hPa
Clouds: Clear
Visibility: 10 miles , 16 km
2018/06/22 08:53 KPSP 220853Z AUTO 00000KT 10SM CLR 31/11 A2974 RMK AO2 SLP067 T03060111 56005
KONT - Ontario, California, USA
Distance from station: WSW 46mi, 74km
Updated: 06/22/2018 1:53am
Haze, Overcast
Haze, Overcast
 Wind from W
Wind: W 8 mph , 13 km/h
Temperature: 64°F , 18°C
Dew Point: 59°F , 15°C
Humidity: 83%
Barometer: 29.92 inHg , 1013.2 hPa
Summary: Haze
Clouds: Overcast
Visibility: 5 miles , 8 km
Cloud details: Overcast 900 ft
2018/06/22 08:53 KONT 220853Z 28007KT 5SM HZ OVC009 18/15 A2992 RMK AO2 SLP117 T01780150 55001
 
KRIV - Riverside/March, California, USA
Distance from station: SW 37mi, 60km
Updated: 06/22/2018 1:58am
Clear
Clear
 Wind from NW
Wind: NW 6 mph , 9 km/h
Temperature: 59°F , 15°C
Dew Point: 59°F , 15°C
Humidity: 100%
Barometer: 29.93 inHg , 1013.5 hPa
Clouds: Clear
Visibility: 9 miles , 14 km
2018/06/22 08:58 KRIV 220858Z AUTO 31005KT 9SM CLR 15/15 A2993 RMK AO2 SLP122 T01530153 56004
KRAL - Riverside, California, USA
Distance from station: WSW 42mi, 68km
Updated: 06/22/2018 1:53am
Mist, Overcast
Mist, Overcast
 Wind from WNW
Wind: WNW 5 mph , 7 km/h
Temperature: 63°F , 17°C
Dew Point: 61°F , 16°C
Humidity: 94%
Barometer: 29.93 inHg , 1013.5 hPa
Summary: Mist
Clouds: Overcast
Visibility: 6 miles , 10 km
Cloud details: Overcast 800 ft
2018/06/22 08:53 KRAL 220853Z AUTO 29004KT 6SM BR OVC008 17/16 A2993 RMK AO2 SLP118 T01720156 55001
 
KDAG - Daggett, California, USA
Distance from station: N 41mi, 66km
Updated: 06/22/2018 12:50am
Clear
Clear
 Wind from W
Wind: W 18 mph , 30 km/h
Temperature: 84°F , 29°C
Dew Point: 36°F , 2°C
Humidity: 18%
Barometer: 29.85 inHg , 1010.8 hPa
Clouds: Clear
Visibility: 10 miles , 16 km
2018/06/22 07:50 KDAG 220750Z AUTO 27016KT 10SM CLR 29/02 A2985 RMK AO2 SLP073 T02890017 404440233
KCNO - Chino, California, USA
Distance from station: WSW 50mi, 80km
Updated: 06/22/2018 1:53am
Haze, Overcast
Haze, Overcast
 Wind from WSW
Wind: WSW 7 mph , 11 km/h
Temperature: 64°F , 18°C
Dew Point: 61°F , 16°C
Humidity: 88%
Barometer: 29.93 inHg , 1013.5 hPa
Summary: Haze
Clouds: Overcast
Visibility: 4 miles , 6 km
Cloud details: Overcast 900 ft
2018/06/22 08:53 KCNO 220853Z AUTO 25006KT 4SM HZ OVC009 18/16 A2993 RMK AO2 SLP129 T01830156 55002